createdAt,value
2024-03-12T00:01:09.847Z,7.68
2024-03-12T00:03:44.256Z,7.60
2024-03-12T00:06:12.082Z,7.97
2024-03-12T00:08:40.787Z,8.07
2024-03-12T00:11:09.063Z,7.22
2024-03-12T00:13:36.336Z,7.00
2024-03-12T00:16:04.494Z,7.05
2024-03-12T00:18:34.226Z,6.72
2024-03-12T00:21:04.590Z,7.85
2024-03-12T00:23:31.611Z,8.30
2024-03-12T00:25:58.586Z,7.97
2024-03-12T00:28:25.629Z,6.90
2024-03-12T00:30:55.460Z,7.22
2024-03-12T00:33:23.476Z,7.47
2024-03-12T00:35:50.502Z,7.25
2024-03-12T00:38:19.220Z,8.75
2024-03-12T00:40:48.150Z,9.60
2024-03-12T00:43:15.462Z,7.15
2024-03-12T00:45:42.891Z,7.70
2024-03-12T00:48:16.769Z,8.48
2024-03-12T00:50:46.532Z,7.82
2024-03-12T00:53:14.412Z,7.22
2024-03-12T00:55:42.204Z,8.45
2024-03-12T00:58:13.622Z,7.93
2024-03-12T01:00:42.248Z,6.13
2024-03-12T01:03:10.362Z,7.78
2024-03-12T01:05:39.076Z,7.45
2024-03-12T01:08:07.174Z,6.38
2024-03-12T01:10:35.757Z,7.45
2024-03-12T01:13:10.417Z,7.25
2024-03-12T01:15:38.329Z,6.95
2024-03-12T01:18:08.223Z,7.13
2024-03-12T01:20:36.225Z,6.40
2024-03-12T01:23:06.449Z,6.65
2024-03-12T01:25:36.565Z,7.18
2024-03-12T01:28:06.385Z,7.55
2024-03-12T01:30:34.959Z,6.88
2024-03-12T01:33:03.771Z,7.05
2024-03-12T01:35:31.676Z,6.53
2024-03-12T01:37:59.403Z,7.25
2024-03-12T01:40:28.639Z,7.22
2024-03-12T01:43:05.141Z,6.43
2024-03-12T01:45:34.636Z,6.82
2024-03-12T01:48:12.194Z,6.72
2024-03-12T01:50:40.644Z,6.80
2024-03-12T01:53:08.821Z,6.03
2024-03-12T01:55:43.401Z,7.05
2024-03-12T01:58:13.839Z,7.28
2024-03-12T02:00:40.926Z,7.47
2024-03-12T02:03:08.147Z,6.78
2024-03-12T02:05:35.259Z,6.68
2024-03-12T02:08:02.930Z,6.88
2024-03-12T02:10:29.936Z,6.97
2024-03-12T02:12:57.958Z,6.95
2024-03-12T02:15:25.203Z,6.53
2024-03-12T02:17:55.595Z,7.10
2024-03-12T02:20:23.661Z,6.82
2024-03-12T02:22:56.468Z,7.05
2024-03-12T02:25:24.703Z,7.03
2024-03-12T02:27:53.272Z,7.15
2024-03-12T02:30:21.019Z,6.97
2024-03-12T02:32:48.618Z,7.75
2024-03-12T02:35:16.743Z,6.38
2024-03-12T02:37:44.331Z,6.90
2024-03-12T02:40:14.892Z,6.88
2024-03-12T02:42:43.452Z,6.80
2024-03-12T02:45:18.250Z,6.07
2024-03-12T02:47:47.209Z,6.05
2024-03-12T02:50:15.307Z,6.88
2024-03-12T02:52:43.424Z,6.75
2024-03-12T02:55:11.208Z,7.38
2024-03-12T02:57:38.537Z,6.10
2024-03-12T03:00:14.242Z,6.13
2024-03-12T03:02:43.419Z,7.07
2024-03-12T03:05:11.249Z,5.82
2024-03-12T03:07:39.023Z,5.65
2024-03-12T03:10:07.414Z,6.28
2024-03-12T03:12:34.463Z,6.07
2024-03-12T03:15:01.438Z,5.63
2024-03-12T03:17:28.412Z,5.57
2024-03-12T03:19:55.405Z,6.28
2024-03-12T03:22:22.434Z,6.63
2024-03-12T03:24:49.499Z,5.47
2024-03-12T03:27:16.515Z,5.75
2024-03-12T03:29:44.045Z,5.22
2024-03-12T03:32:11.052Z,5.85
2024-03-12T03:34:38.637Z,5.75
2024-03-12T03:37:05.967Z,5.65
2024-03-12T03:39:36.956Z,6.00
2024-03-12T03:42:04.154Z,5.32
2024-03-12T03:44:31.145Z,5.72
2024-03-12T03:46:58.098Z,5.80
2024-03-12T03:49:25.099Z,6.18
2024-03-12T03:51:53.519Z,5.28
2024-03-12T03:54:20.674Z,5.85
2024-03-12T03:56:48.755Z,5.63
2024-03-12T03:59:17.757Z,6.13
2024-03-12T04:01:45.039Z,5.68
2024-03-12T04:04:15.447Z,6.57
2024-03-12T04:06:46.021Z,5.93
2024-03-12T04:09:13.100Z,5.25
2024-03-12T04:11:40.305Z,5.50
2024-03-12T04:14:08.982Z,5.95
2024-03-12T04:16:36.069Z,5.68
2024-03-12T04:19:03.225Z,5.03
2024-03-12T04:21:30.474Z,5.82
2024-03-12T04:23:57.468Z,6.13
2024-03-12T04:26:24.509Z,5.65
2024-03-12T04:28:51.482Z,5.22
2024-03-12T04:31:22.059Z,5.05
2024-03-12T04:33:53.998Z,5.00
2024-03-12T04:36:24.739Z,5.45
2024-03-12T04:38:52.082Z,5.20
2024-03-12T04:41:21.847Z,5.70
2024-03-12T04:43:52.294Z,5.20
2024-03-12T04:46:19.607Z,5.15
2024-03-12T04:48:47.787Z,5.43
2024-03-12T04:51:15.604Z,5.95
2024-03-12T04:53:44.710Z,5.15
2024-03-12T04:56:12.754Z,5.13
2024-03-12T04:58:40.104Z,5.60
2024-03-12T05:01:07.522Z,5.28
2024-03-12T05:03:35.674Z,4.90
2024-03-12T05:06:02.944Z,4.45
2024-03-12T05:08:29.965Z,4.88
2024-03-12T05:10:58.833Z,4.85
2024-03-12T05:13:27.216Z,4.20
2024-03-12T05:15:54.199Z,5.35
2024-03-12T05:18:21.384Z,4.68
2024-03-12T05:20:48.395Z,4.28
2024-03-12T05:23:16.086Z,4.90
2024-03-12T05:25:45.335Z,5.10
2024-03-12T05:28:13.454Z,4.75
2024-03-12T05:30:42.307Z,4.05
2024-03-12T05:33:16.723Z,4.85
2024-03-12T05:35:52.516Z,4.80
2024-03-12T05:38:31.781Z,5.10
2024-03-12T05:41:15.900Z,4.88
2024-03-12T05:44:01.656Z,4.90
2024-03-12T05:46:48.379Z,4.32
2024-03-12T05:49:15.775Z,4.85
2024-03-12T05:51:43.368Z,5.43
2024-03-12T05:54:10.880Z,4.90
2024-03-12T05:56:38.990Z,4.95
2024-03-12T05:59:06.242Z,5.10
2024-03-12T06:01:33.662Z,5.75
2024-03-12T06:04:00.962Z,5.35
2024-03-12T06:06:28.105Z,4.68
2024-03-12T06:08:55.579Z,4.50
2024-03-12T06:11:23.865Z,5.53
2024-03-12T06:13:50.833Z,5.70
2024-03-12T06:16:19.681Z,4.72
2024-03-12T06:18:46.996Z,5.47
2024-03-12T06:21:14.209Z,5.80
2024-03-12T06:23:41.870Z,4.93
2024-03-12T06:26:08.960Z,5.78
2024-03-12T06:28:37.034Z,4.95
2024-03-12T06:31:05.323Z,5.25
2024-03-12T06:33:32.860Z,4.65
2024-03-12T06:35:59.895Z,5.40
2024-03-12T06:38:26.917Z,4.85
2024-03-12T06:40:54.195Z,5.03
2024-03-12T06:43:22.437Z,4.95
2024-03-12T06:45:53.764Z,9.23
2024-03-12T06:48:21.435Z,8.70
2024-03-12T06:50:48.593Z,4.93
2024-03-12T06:53:16.640Z,2.65
2024-03-12T06:55:45.307Z,3.17
2024-03-12T06:58:13.355Z,2.55
2024-03-12T07:00:45.843Z,2.97
2024-03-12T07:03:15.620Z,2.70
2024-03-12T07:05:48.448Z,3.30
2024-03-12T07:08:18.990Z,3.10
2024-03-12T07:10:46.895Z,2.60
2024-03-12T07:13:14.792Z,3.40
2024-03-12T07:15:46.320Z,2.78
2024-03-12T07:18:15.472Z,2.63
2024-03-12T07:20:42.817Z,2.47
2024-03-12T07:23:10.044Z,2.45
2024-03-12T07:25:37.187Z,2.97
2024-03-12T07:28:08.864Z,2.45
2024-03-12T07:30:37.221Z,2.87
2024-03-12T07:33:05.592Z,2.45
2024-03-12T07:35:36.924Z,2.80
2024-03-12T07:38:05.048Z,2.47
2024-03-12T07:40:35.401Z,2.25
2024-03-12T07:43:05.516Z,2.47
2024-03-12T07:45:32.908Z,3.22
2024-03-12T07:48:00.454Z,2.83
2024-03-12T07:50:32.125Z,2.80
2024-03-12T07:52:59.222Z,2.97
2024-03-12T07:55:26.392Z,2.15
2024-03-12T07:57:53.632Z,2.25
2024-03-12T08:00:20.954Z,2.38
2024-03-12T08:02:48.192Z,2.40
2024-03-12T08:05:15.490Z,1.83
2024-03-12T08:07:46.173Z,2.75
2024-03-12T08:10:14.060Z,2.17
2024-03-12T08:12:41.712Z,2.88
2024-03-12T08:15:14.455Z,2.08
2024-03-12T08:17:42.466Z,1.90
2024-03-12T08:20:14.675Z,2.25
2024-03-12T08:22:41.839Z,2.30
2024-03-12T08:25:12.173Z,1.88
2024-03-12T08:27:41.831Z,2.30
2024-03-12T08:30:09.890Z,2.83
2024-03-12T08:32:37.679Z,3.15
2024-03-12T08:35:06.333Z,3.58
2024-03-12T08:37:36.862Z,3.60
2024-03-12T08:40:08.804Z,4.18
2024-03-12T08:42:44.463Z,4.18
2024-03-12T08:45:18.565Z,4.68
2024-03-12T08:47:48.650Z,5.88
2024-03-12T08:50:17.026Z,5.57
2024-03-12T08:52:44.169Z,6.05
2024-03-12T08:55:11.345Z,5.40
2024-03-12T08:57:38.534Z,6.40
2024-03-12T09:00:12.353Z,6.13
2024-03-12T09:02:43.167Z,6.53
2024-03-12T09:05:10.707Z,6.55
2024-03-12T09:07:38.438Z,6.38
2024-03-12T09:10:12.894Z,7.07
2024-03-12T09:12:42.160Z,6.50
2024-03-12T09:15:10.447Z,8.25
2024-03-12T09:17:41.362Z,7.20
2024-03-12T09:20:12.238Z,6.63
2024-03-12T09:22:40.687Z,7.70
2024-03-12T09:25:09.623Z,6.90
2024-03-12T09:27:36.940Z,6.47
2024-03-12T09:30:08.257Z,7.25
2024-03-12T09:32:35.418Z,8.00
2024-03-12T09:35:04.051Z,7.68
2024-03-12T09:37:32.188Z,9.18
2024-03-12T09:40:04.829Z,7.45
2024-03-12T09:42:33.890Z,7.90
2024-03-12T09:45:01.390Z,8.55
2024-03-12T09:47:28.664Z,8.98
2024-03-12T09:49:57.030Z,7.43
2024-03-12T09:52:27.040Z,7.95
2024-03-12T09:54:54.531Z,7.15
2024-03-12T09:57:24.082Z,7.65
2024-03-12T09:59:53.217Z,8.23
2024-03-12T10:02:21.736Z,8.40
2024-03-12T10:04:51.860Z,8.88
2024-03-12T10:07:19.011Z,8.70
2024-03-12T10:09:47.263Z,7.70
2024-03-12T10:12:20.245Z,9.77
2024-03-12T10:17:16.646Z,8.15
2024-03-12T10:19:50.354Z,9.18
2024-03-12T10:22:27.816Z,9.98
2024-03-12T10:25:07.398Z,8.40
2024-03-12T10:27:34.594Z,9.55
2024-03-12T10:30:01.748Z,9.05
2024-03-12T10:32:33.288Z,8.77
2024-03-12T10:35:00.342Z,8.80
2024-03-12T10:37:30.816Z,9.15
2024-03-12T10:40:20.320Z,8.75
2024-03-12T10:43:04.684Z,8.57
2024-03-12T10:45:32.634Z,8.75
2024-03-12T10:48:01.400Z,8.90
2024-03-12T10:50:28.464Z,9.02
2024-03-12T10:52:56.435Z,8.80
2024-03-12T10:55:23.985Z,9.15
2024-03-12T10:57:56.083Z,9.02
2024-03-12T11:00:27.128Z,8.90
2024-03-12T11:02:55.488Z,9.43
2024-03-12T11:05:31.212Z,9.98
2024-03-12T11:07:59.936Z,9.00
2024-03-12T11:10:34.121Z,9.55
2024-03-12T11:13:02.307Z,9.82
2024-03-12T11:15:30.067Z,10.57
2024-03-12T11:17:57.383Z,9.95
2024-03-12T11:20:28.028Z,10.32
2024-03-12T11:23:01.317Z,11.48
2024-03-12T11:25:51.243Z,10.48
2024-03-12T11:28:22.502Z,10.15
2024-03-12T11:31:10.067Z,9.05
2024-03-12T11:33:40.183Z,10.50
2024-03-12T11:36:10.900Z,10.82
2024-03-12T11:38:40.141Z,10.10
2024-03-12T11:41:08.149Z,10.30
2024-03-12T11:43:40.425Z,11.40
2024-03-12T11:46:16.697Z,10.85
2024-03-12T11:48:46.343Z,10.65
2024-03-12T11:51:14.905Z,11.88
2024-03-12T11:53:45.278Z,11.48
2024-03-12T11:56:17.843Z,11.48
2024-03-12T11:58:57.629Z,12.25
2024-03-12T12:01:33.548Z,11.65
2024-03-12T12:04:10.929Z,10.38
2024-03-12T12:06:38.214Z,10.85
2024-03-12T12:09:10.267Z,12.13
2024-03-12T12:11:39.490Z,13.73
2024-03-12T12:14:09.921Z,11.57
2024-03-12T12:16:37.946Z,11.98
2024-03-12T12:19:14.023Z,11.80
2024-03-12T12:21:46.437Z,13.07
2024-03-12T12:24:14.813Z,11.63
2024-03-12T12:26:45.723Z,10.40
2024-03-12T12:29:15.274Z,11.70
2024-03-12T12:31:43.302Z,11.20
2024-03-12T12:34:11.999Z,12.35
2024-03-12T12:36:44.508Z,12.38
2024-03-12T12:39:13.460Z,11.60
2024-03-12T12:41:45.340Z,11.73
2024-03-12T12:44:23.085Z,11.10
2024-03-12T12:46:53.637Z,10.50
2024-03-12T12:49:22.555Z,11.93
2024-03-12T12:51:51.368Z,11.52
2024-03-12T12:54:23.021Z,11.23
2024-03-12T12:56:51.752Z,11.93
2024-03-12T12:59:24.486Z,11.00
2024-03-12T13:01:52.001Z,11.77
2024-03-12T13:04:29.010Z,10.68
2024-03-12T13:06:58.364Z,10.23
2024-03-12T13:09:42.442Z,10.50
2024-03-12T13:12:10.571Z,11.25
2024-03-12T13:14:43.115Z,9.95
2024-03-12T13:17:11.172Z,11.30
2024-03-12T13:19:38.461Z,11.07
2024-03-12T13:22:13.167Z,11.13
2024-03-12T13:24:45.108Z,10.38
2024-03-12T13:27:13.579Z,10.23
2024-03-12T13:29:43.837Z,10.73
2024-03-12T13:32:11.549Z,10.65
2024-03-12T13:34:38.602Z,11.25
2024-03-12T13:37:08.414Z,10.18
2024-03-12T13:39:35.734Z,11.35
2024-03-12T13:42:06.428Z,10.23
2024-03-12T13:44:33.602Z,10.90
2024-03-12T13:47:01.338Z,10.73
2024-03-12T13:49:28.984Z,10.38
2024-03-12T13:51:56.414Z,10.57
2024-03-12T13:54:23.552Z,10.10
2024-03-12T13:56:50.539Z,10.05
2024-03-12T13:59:18.810Z,8.55
2024-03-12T14:01:48.538Z,9.90
2024-03-12T14:04:16.030Z,8.57
2024-03-12T14:06:43.212Z,9.45
2024-03-12T14:09:13.648Z,8.77
2024-03-12T14:11:41.067Z,9.55
2024-03-12T14:14:11.236Z,9.32
2024-03-12T14:16:38.449Z,8.65
2024-03-12T14:19:05.682Z,8.77
2024-03-12T14:21:34.113Z,9.98
2024-03-12T14:24:03.814Z,9.70
2024-03-12T14:26:31.221Z,9.20
2024-03-12T14:28:59.222Z,9.20
2024-03-12T14:31:26.383Z,8.63
2024-03-12T14:33:53.927Z,8.20
2024-03-12T14:36:21.153Z,9.02
2024-03-12T14:38:50.867Z,10.38
2024-03-12T14:41:21.645Z,8.85
2024-03-12T14:43:48.799Z,8.88
2024-03-12T14:46:16.687Z,9.57
2024-03-12T14:48:43.881Z,8.35
2024-03-12T14:51:11.890Z,8.00
2024-03-12T14:53:40.689Z,6.68
2024-03-12T14:56:07.863Z,8.20
2024-03-12T14:58:34.902Z,7.40
2024-03-12T15:01:02.143Z,7.18
2024-03-12T15:03:29.286Z,6.20
2024-03-12T15:05:56.812Z,6.40
2024-03-12T15:08:24.361Z,5.30
2024-03-12T15:10:51.579Z,6.13
2024-03-12T15:13:19.124Z,6.22
2024-03-12T15:15:47.215Z,6.07
2024-03-12T15:18:14.706Z,5.80
2024-03-12T15:20:43.033Z,6.35
2024-03-12T15:23:10.310Z,6.03
2024-03-12T15:25:37.643Z,5.70
2024-03-12T15:28:05.254Z,6.32
2024-03-12T15:30:34.578Z,5.97
2024-03-12T15:33:01.772Z,5.75
2024-03-12T15:35:29.019Z,6.40
2024-03-12T15:37:59.493Z,5.65
2024-03-12T15:40:26.547Z,5.03
2024-03-12T15:42:53.613Z,5.43
2024-03-12T15:45:21.929Z,5.45
2024-03-12T15:47:49.505Z,5.68
2024-03-12T15:50:17.483Z,5.95
2024-03-12T15:52:44.905Z,4.78
2024-03-12T15:55:13.566Z,4.80
2024-03-12T15:57:41.899Z,4.68
2024-03-12T16:00:14.742Z,4.45
2024-03-12T16:02:42.625Z,4.40
2024-03-12T16:05:09.940Z,4.95
2024-03-12T16:07:37.430Z,4.88
2024-03-12T16:10:05.545Z,4.63
2024-03-12T16:12:33.032Z,3.83
2024-03-12T16:15:00.080Z,4.78
2024-03-12T16:17:31.005Z,3.88
2024-03-12T16:19:58.219Z,4.38
2024-03-12T16:22:25.277Z,3.92
2024-03-12T16:24:52.457Z,3.58
2024-03-12T16:27:19.831Z,3.63
2024-03-12T16:29:48.223Z,4.15
2024-03-12T16:32:15.673Z,3.50
2024-03-12T16:34:43.098Z,3.78
2024-03-12T16:37:10.516Z,3.95
2024-03-12T16:39:39.876Z,4.22
2024-03-12T16:42:07.396Z,3.67
2024-03-12T16:44:34.455Z,3.72
2024-03-12T16:47:06.043Z,3.83
2024-03-12T16:49:34.407Z,3.83
2024-03-12T16:52:02.417Z,3.47
2024-03-12T16:54:32.029Z,3.42
2024-03-12T16:57:03.625Z,3.97
2024-03-12T16:59:34.715Z,3.65
2024-03-12T17:02:04.874Z,3.75
2024-03-12T17:04:32.879Z,3.88
2024-03-12T17:07:08.956Z,3.80
2024-03-12T17:09:40.607Z,3.72
2024-03-12T17:12:10.211Z,3.20
2024-03-12T17:14:37.390Z,3.67
2024-03-12T17:17:08.615Z,3.67
2024-03-12T17:19:38.243Z,3.88
2024-03-12T17:22:07.154Z,3.60
2024-03-12T17:24:35.644Z,3.47
2024-03-12T17:27:09.109Z,3.58
2024-03-12T17:29:38.125Z,3.10
2024-03-12T17:32:11.459Z,4.00
2024-03-12T17:34:39.950Z,3.35
2024-03-12T17:37:17.874Z,3.78
2024-03-12T17:39:47.908Z,3.50
2024-03-12T17:42:21.651Z,3.30
2024-03-12T17:44:49.691Z,3.70
2024-03-12T17:47:23.876Z,3.35
2024-03-12T17:49:54.562Z,3.00
2024-03-12T17:52:23.477Z,3.20
2024-03-12T17:54:51.279Z,2.63
2024-03-12T17:57:18.650Z,2.42
2024-03-12T17:59:46.027Z,2.40
2024-03-12T18:02:16.840Z,2.75
2024-03-12T18:04:44.416Z,3.00
2024-03-12T18:07:26.282Z,2.75
2024-03-12T18:09:58.027Z,2.92
2024-03-12T18:12:25.328Z,2.97
2024-03-12T18:14:52.360Z,2.80
2024-03-12T18:17:19.922Z,2.95
2024-03-12T18:19:47.427Z,2.70
2024-03-12T18:22:15.231Z,2.65
2024-03-12T18:24:42.603Z,2.50
2024-03-12T18:27:12.668Z,2.55
2024-03-12T18:29:45.934Z,3.25
2024-03-12T18:32:17.488Z,3.13
2024-03-12T18:34:46.728Z,3.03
2024-03-12T18:37:13.797Z,2.88
2024-03-12T18:39:42.764Z,1.95
2024-03-12T18:42:11.108Z,2.28
2024-03-12T18:44:38.324Z,2.72
2024-03-12T18:47:06.583Z,2.30
2024-03-12T18:49:35.039Z,2.10
2024-03-12T18:52:03.415Z,2.88
2024-03-12T18:54:31.332Z,1.85
2024-03-12T18:56:58.909Z,2.58
2024-03-12T18:59:26.448Z,2.10
2024-03-12T19:01:59.461Z,2.42
2024-03-12T19:04:33.611Z,2.15
2024-03-12T19:07:04.488Z,2.55
2024-03-12T19:09:32.539Z,2.55
2024-03-12T19:12:01.656Z,2.33
2024-03-12T19:14:30.998Z,2.22
2024-03-12T19:17:01.957Z,2.85
2024-03-12T19:19:30.629Z,2.20
2024-03-12T19:21:58.501Z,2.55
2024-03-12T19:24:26.197Z,1.98
2024-03-12T19:26:54.702Z,2.60
2024-03-12T19:29:22.549Z,2.50
2024-03-12T19:31:50.607Z,2.75
2024-03-12T19:34:18.937Z,2.55
2024-03-12T19:36:47.693Z,2.55
2024-03-12T19:39:15.308Z,2.30
2024-03-12T19:41:46.280Z,2.13
2024-03-12T19:44:13.973Z,2.63
2024-03-12T19:46:41.734Z,2.63
2024-03-12T19:49:14.763Z,2.42
2024-03-12T19:51:42.462Z,2.10
2024-03-12T19:54:09.779Z,2.20
2024-03-12T19:56:37.414Z,2.67
2024-03-12T19:59:06.051Z,2.25
2024-03-12T20:01:34.594Z,2.97
2024-03-12T20:04:02.379Z,1.98
2024-03-12T20:06:30.341Z,2.72
2024-03-12T20:09:01.185Z,2.55
2024-03-12T20:11:28.435Z,2.42
2024-03-12T20:13:56.309Z,1.98
2024-03-12T20:16:23.596Z,2.47
2024-03-12T20:18:50.691Z,1.92
2024-03-12T20:21:18.037Z,2.22
2024-03-12T20:23:45.214Z,1.80
2024-03-12T20:26:12.279Z,1.83
2024-03-12T20:28:42.287Z,2.05
2024-03-12T20:31:10.862Z,2.40
2024-03-12T20:33:39.767Z,2.10
2024-03-12T20:36:08.450Z,2.33
2024-03-12T20:38:35.476Z,2.10
2024-03-12T20:41:02.541Z,2.17
2024-03-12T20:43:29.630Z,2.10
2024-03-12T20:45:57.214Z,1.90
2024-03-12T20:48:24.700Z,2.15
2024-03-12T20:50:51.688Z,1.95
2024-03-12T20:53:22.478Z,2.30
2024-03-12T20:55:49.477Z,2.00
2024-03-12T20:58:16.469Z,2.35
2024-03-12T21:00:43.598Z,2.13
2024-03-12T21:03:10.959Z,2.15
2024-03-12T21:05:43.043Z,2.10
2024-03-12T21:08:10.949Z,2.40
2024-03-12T21:10:39.659Z,2.75
2024-03-12T21:13:06.735Z,2.15
2024-03-12T21:15:33.770Z,2.00
2024-03-12T21:18:01.608Z,2.20
2024-03-12T21:20:33.192Z,2.10
2024-03-12T21:23:00.352Z,1.75
2024-03-12T21:25:27.844Z,1.88
2024-03-12T21:27:54.990Z,2.88
2024-03-12T21:30:25.092Z,1.92
2024-03-12T21:32:53.754Z,2.25
2024-03-12T21:35:20.908Z,2.58
2024-03-12T21:37:47.840Z,2.00
2024-03-12T21:40:17.235Z,2.05
2024-03-12T21:42:44.859Z,2.25
2024-03-12T21:45:12.917Z,2.33
2024-03-12T21:47:41.302Z,2.45
2024-03-12T21:50:16.336Z,2.40
2024-03-12T21:52:44.036Z,2.88
2024-03-12T21:55:12.248Z,2.65
2024-03-12T21:57:40.956Z,2.53
2024-03-12T22:00:13.094Z,2.25
2024-03-12T22:02:40.405Z,2.05
2024-03-12T22:05:07.568Z,2.65
2024-03-12T22:07:38.218Z,2.00
2024-03-12T22:10:09.133Z,2.63
2024-03-12T22:12:36.425Z,2.40
2024-03-12T22:15:05.257Z,2.40
2024-03-12T22:17:32.412Z,2.75
2024-03-12T22:20:00.753Z,2.60
2024-03-12T22:22:29.639Z,2.50
2024-03-12T22:24:56.709Z,2.78
2024-03-12T22:27:23.926Z,2.35
2024-03-12T22:29:50.906Z,2.88
2024-03-12T22:32:22.061Z,3.22
2024-03-12T22:34:49.250Z,2.65
2024-03-12T22:37:16.403Z,2.50
2024-03-12T22:39:43.904Z,2.85
2024-03-12T22:42:11.648Z,2.67
2024-03-12T22:44:39.911Z,3.97
2024-03-12T22:47:09.185Z,2.95
2024-03-12T22:49:37.187Z,2.65
2024-03-12T22:52:08.942Z,2.35
2024-03-12T22:54:36.634Z,2.95
2024-03-12T22:57:04.925Z,2.95
2024-03-12T22:59:33.378Z,3.00
2024-03-12T23:02:04.165Z,3.10
2024-03-12T23:04:32.257Z,3.08
2024-03-12T23:06:59.753Z,3.03
2024-03-12T23:09:27.232Z,3.72
2024-03-12T23:11:57.325Z,2.83
2024-03-12T23:14:27.385Z,3.42
2024-03-12T23:16:54.617Z,4.38
2024-03-12T23:19:21.819Z,4.18
2024-03-12T23:21:48.981Z,4.20
2024-03-12T23:24:16.121Z,4.63
2024-03-12T23:26:43.753Z,4.53
2024-03-12T23:29:11.490Z,4.75
2024-03-12T23:31:38.781Z,4.38
2024-03-12T23:34:06.932Z,4.78
2024-03-12T23:36:34.396Z,4.80
2024-03-12T23:39:01.555Z,4.05
2024-03-12T23:41:31.022Z,4.80
2024-03-12T23:43:58.178Z,3.92
2024-03-12T23:46:25.878Z,4.93
2024-03-12T23:48:53.377Z,3.70
2024-03-12T23:51:20.492Z,4.43
2024-03-12T23:53:47.550Z,3.63
2024-03-12T23:56:14.666Z,3.85
2024-03-12T23:58:41.696Z,3.50
